Airport View

Enter AWOS ICAO identifier for current METAR.

ex. KFNL

KCJR 191855Z AUTO 00000KT 10SM BKN037 OVC048 30/21 A2976 RMK AO2 T02990208

19 Jun 2019 19:19

Frequency: 119.325

Phone: 540-727-0523

Other Area AWOS: KHWY - KOMH - KHEF - KRMN

TAF KNYG 1915/2015 VRB06KT 9999 SCT015 BKN050 BKN150 QNH2971INS FM192100 VRB10G22KT 4800 TSRA BKN030CB OVC050 510004 QNH2969INS FM192300 VRB06KT 9000 -SHRA BR SCT015 BKN020 OVC050 500000 QNH2970INS FM200100 18008KT 9999 BKN010 OVC035 QNH2965INS BECMG 2006/2008 VRB06KT 6000 BR BKN008 QNH2963INS TEMPO 2009/2012 3200 BR BKN005 FM201300 VRB06KT 9999 SCT030 SCT060 QNH2965INS T30/1921Z T22/2009Z